createdAt,value
2022-12-09T00:01:10.778Z,19.38
2022-12-09T00:03:39.314Z,16.00
2022-12-09T00:06:07.744Z,22.83
2022-12-09T00:08:34.722Z,23.98
2022-12-09T00:11:02.094Z,26.48
2022-12-09T00:13:30.049Z,26.08
2022-12-09T00:15:56.934Z,26.30
2022-12-09T00:18:23.973Z,24.63
2022-12-09T00:20:52.286Z,19.15
2022-12-09T00:23:19.169Z,20.85
2022-12-09T00:25:46.403Z,19.25
2022-12-09T00:28:13.746Z,21.20
2022-12-09T00:30:41.001Z,18.33
2022-12-09T00:33:09.141Z,62.70
2022-12-09T00:35:36.310Z,52.95
2022-12-09T00:38:05.445Z,31.63
2022-12-09T00:40:32.499Z,23.45
2022-12-09T00:42:59.690Z,11.60
2022-12-09T00:45:27.419Z,38.55
2022-12-09T00:47:54.255Z,63.25
2022-12-09T00:50:21.095Z,16.67
2022-12-09T00:52:47.900Z,16.77
2022-12-09T00:55:16.406Z,14.57
2022-12-09T00:57:43.604Z,14.00
2022-12-09T01:00:12.320Z,14.32
2022-12-09T01:02:39.452Z,13.18
2022-12-09T01:05:07.568Z,13.43
2022-12-09T01:07:34.486Z,26.80
2022-12-09T01:10:01.289Z,15.25
2022-12-09T01:12:29.530Z,18.98
2022-12-09T01:14:56.597Z,13.27
2022-12-09T01:17:24.542Z,19.13
2022-12-09T01:19:51.677Z,42.13
2022-12-09T01:22:18.514Z,45.35
2022-12-09T01:24:45.606Z,30.77
2022-12-09T01:27:14.949Z,32.70
2022-12-09T01:29:43.325Z,11.50
2022-12-09T01:32:10.961Z,9.35
2022-12-09T01:34:39.571Z,11.90
2022-12-09T01:37:07.101Z,11.52
2022-12-09T01:39:33.933Z,11.52
2022-12-09T01:42:02.082Z,9.40
2022-12-09T01:44:31.890Z,7.43
2022-12-09T01:47:02.493Z,7.93
2022-12-09T01:49:35.768Z,9.70
2022-12-09T01:52:08.138Z,10.80
2022-12-09T01:54:35.455Z,14.70
2022-12-09T01:57:05.387Z,12.40
2022-12-09T01:59:32.780Z,12.50
2022-12-09T02:02:03.649Z,15.40
2022-12-09T02:04:34.478Z,21.17
2022-12-09T02:07:06.249Z,23.05
2022-12-09T02:09:33.401Z,19.48
2022-12-09T02:12:10.598Z,37.53
2022-12-09T02:14:42.130Z,24.38
2022-12-09T02:17:38.487Z,20.83
2022-12-09T02:20:16.145Z,18.52
2022-12-09T02:22:45.301Z,13.57
2022-12-09T02:25:25.971Z,24.52
2022-12-09T02:28:10.818Z,16.75
2022-12-09T02:30:47.830Z,15.40
2022-12-09T02:33:40.797Z,17.23
2022-12-09T02:36:16.540Z,29.05
2022-12-09T02:38:44.578Z,21.95
2022-12-09T02:41:18.350Z,25.55
2022-12-09T02:43:52.192Z,26.80
2022-12-09T02:46:27.756Z,25.42
2022-12-09T02:48:58.623Z,13.18
2022-12-09T02:51:30.865Z,18.02
2022-12-09T02:54:04.597Z,23.75
2022-12-09T02:56:35.017Z,24.65
2022-12-09T02:59:02.844Z,24.17
2022-12-09T03:01:35.663Z,25.92
2022-12-09T03:04:03.274Z,23.00
2022-12-09T03:06:39.671Z,28.65
2022-12-09T03:09:10.627Z,17.65
2022-12-09T03:11:39.075Z,15.00
2022-12-09T03:14:10.475Z,14.00
2022-12-09T03:16:42.547Z,20.00
2022-12-09T03:19:16.871Z,18.70
2022-12-09T03:21:48.064Z,15.60
2022-12-09T03:24:20.092Z,21.73
2022-12-09T03:26:50.263Z,19.17
2022-12-09T03:29:21.897Z,20.58
2022-12-09T03:31:50.049Z,33.00
2022-12-09T03:34:20.139Z,19.27
2022-12-09T03:36:52.081Z,14.32
2022-12-09T03:39:25.246Z,21.45
2022-12-09T03:41:56.280Z,14.00
2022-12-09T03:44:27.660Z,14.93
2022-12-09T03:46:54.991Z,19.83
2022-12-09T03:49:22.202Z,25.20
2022-12-09T03:51:56.614Z,14.32
2022-12-09T03:54:28.409Z,11.82
2022-12-09T03:56:57.745Z,26.52
2022-12-09T03:59:27.592Z,42.63
2022-12-09T04:01:55.432Z,20.05
2022-12-09T04:04:22.671Z,12.77
2022-12-09T04:06:53.104Z,22.92
2022-12-09T04:09:20.740Z,23.23
2022-12-09T04:11:47.727Z,25.90
2022-12-09T04:14:15.925Z,44.90
2022-12-09T04:16:43.759Z,29.92
2022-12-09T04:19:10.964Z,14.77
2022-12-09T04:21:38.104Z,27.35
2022-12-09T04:24:07.227Z,26.45
2022-12-09T04:26:34.917Z,33.08
2022-12-09T04:29:02.528Z,27.33
2022-12-09T04:31:29.732Z,19.38
2022-12-09T04:33:56.862Z,18.05
2022-12-09T04:36:23.744Z,24.40
2022-12-09T04:38:51.122Z,21.10
2022-12-09T04:41:20.113Z,24.38
2022-12-09T04:43:49.031Z,19.48
2022-12-09T04:46:17.828Z,15.25
2022-12-09T04:48:46.421Z,25.40
2022-12-09T04:51:15.563Z,19.13
2022-12-09T04:53:43.439Z,21.70
2022-12-09T04:56:12.843Z,14.23
2022-12-09T05:01:11.448Z,12.70
2022-12-09T05:03:39.284Z,13.10
2022-12-09T05:06:07.985Z,15.40
2022-12-09T05:08:35.170Z,17.85
2022-12-09T05:11:02.488Z,27.90
2022-12-09T05:13:29.835Z,14.85
2022-12-09T05:16:01.488Z,19.23
2022-12-09T05:18:29.921Z,15.90
2022-12-09T05:20:57.283Z,16.55
2022-12-09T05:23:24.880Z,20.30
2022-12-09T05:25:51.838Z,17.50
2022-12-09T05:28:19.660Z,19.30
2022-12-09T05:30:46.692Z,19.00
2022-12-09T05:33:15.283Z,19.00
2022-12-09T05:35:52.184Z,17.92
2022-12-09T05:38:20.157Z,18.70
2022-12-09T05:40:47.274Z,16.77
2022-12-09T05:43:14.487Z,20.58
2022-12-09T05:45:41.474Z,21.35
2022-12-09T05:48:09.083Z,20.38
2022-12-09T05:50:37.800Z,25.80
2022-12-09T05:53:05.086Z,22.85
2022-12-09T05:55:32.505Z,26.27
2022-12-09T05:57:59.669Z,18.48
2022-12-09T06:00:27.380Z,17.40
2022-12-09T06:02:54.596Z,18.33
2022-12-09T06:05:22.644Z,21.15
2022-12-09T06:07:51.308Z,19.05
2022-12-09T06:10:18.932Z,21.65
2022-12-09T06:12:46.058Z,23.48
2022-12-09T06:15:18.728Z,22.88
2022-12-09T06:17:47.474Z,22.90
2022-12-09T06:20:14.953Z,24.05
2022-12-09T06:22:42.496Z,22.33
2022-12-09T06:25:11.661Z,24.90
2022-12-09T06:27:39.003Z,25.17
2022-12-09T06:30:07.766Z,24.45
2022-12-09T06:36:25.505Z,21.55
2022-12-09T06:38:53.980Z,24.88
2022-12-09T06:41:22.771Z,25.75
2022-12-09T06:43:50.329Z,30.60
2022-12-09T06:46:20.315Z,26.48
2022-12-09T06:48:48.087Z,24.13
2022-12-09T06:51:17.057Z,26.67
2022-12-09T06:53:44.292Z,24.85
2022-12-09T06:56:13.421Z,24.52
2022-12-09T06:58:43.864Z,30.58
2022-12-09T07:01:14.788Z,27.33
2022-12-09T07:03:43.768Z,42.95
2022-12-09T07:06:21.089Z,23.23
2022-12-09T07:08:48.603Z,24.90
2022-12-09T07:11:16.121Z,22.90
2022-12-09T07:13:44.367Z,24.85
2022-12-09T07:16:11.844Z,25.35
2022-12-09T07:18:39.209Z,27.58
2022-12-09T07:21:07.579Z,30.02
2022-12-09T07:23:34.748Z,28.80
2022-12-09T07:26:02.504Z,51.00
2022-12-09T07:28:29.378Z,27.50
2022-12-09T07:30:58.113Z,32.08
2022-12-09T07:33:25.786Z,24.80
2022-12-09T07:35:54.637Z,43.58
2022-12-09T07:38:21.799Z,32.85
2022-12-09T07:40:49.120Z,29.60
2022-12-09T07:43:17.455Z,24.35
2022-12-09T07:45:44.943Z,24.65
2022-12-09T07:48:13.828Z,26.60
2022-12-09T07:50:41.541Z,33.72
2022-12-09T08:02:04.284Z,25.52
2022-12-09T08:04:36.772Z,23.25
2022-12-09T08:07:04.650Z,38.75
2022-12-09T08:09:32.242Z,34.13
2022-12-09T08:11:59.481Z,37.55
2022-12-09T08:14:26.485Z,48.10
2022-12-09T08:16:53.476Z,40.10
2022-12-09T08:19:21.311Z,40.10
2022-12-09T08:21:54.531Z,44.08
2022-12-09T08:24:22.173Z,37.35
2022-12-09T08:26:50.057Z,30.33
2022-12-09T08:29:17.535Z,35.97
2022-12-09T08:31:45.419Z,37.92
2022-12-09T08:34:13.196Z,26.48
2022-12-09T08:36:40.859Z,27.80
2022-12-09T08:39:10.427Z,29.42
2022-12-09T08:44:09.837Z,21.98
2022-12-09T08:46:39.327Z,25.05
2022-12-09T08:49:08.152Z,26.23
2022-12-09T08:51:35.851Z,30.90
2022-12-09T08:54:04.215Z,29.65
2022-12-09T08:56:32.792Z,36.58
2022-12-09T08:58:59.883Z,47.58
2022-12-09T09:01:38.209Z,32.20
2022-12-09T09:04:07.916Z,46.17
2022-12-09T09:06:36.279Z,47.30
2022-12-09T09:09:04.230Z,48.83
2022-12-09T09:11:34.295Z,50.72
2022-12-09T09:16:30.637Z,31.63
2022-12-09T09:18:58.352Z,60.00
2022-12-09T09:21:26.939Z,56.42
2022-12-09T09:23:54.079Z,52.85
2022-12-09T09:26:33.037Z,53.95
2022-12-09T09:29:01.547Z,75.10
2022-12-09T09:31:28.935Z,52.05
2022-12-09T09:33:55.966Z,54.28
2022-12-09T09:36:25.268Z,48.72
2022-12-09T09:38:55.192Z,61.28
2022-12-09T09:41:31.360Z,59.03
2022-12-09T09:44:02.919Z,71.72
2022-12-09T09:46:41.565Z,69.10
2022-12-09T09:49:14.708Z,67.90
2022-12-09T09:51:42.743Z,47.92
2022-12-09T09:54:13.966Z,65.97
2022-12-09T09:56:46.537Z,112.00
2022-12-09T15:34:26.541Z,33.03
2022-12-09T15:36:57.697Z,50.42
2022-12-09T15:39:29.760Z,53.97
2022-12-09T15:42:13.626Z,61.88
2022-12-09T15:44:47.695Z,75.15
2022-12-09T15:47:20.101Z,76.15
2022-12-09T15:49:59.017Z,84.75
2022-12-09T15:52:31.435Z,80.50
2022-12-09T15:55:01.187Z,44.00
2022-12-09T15:57:29.145Z,83.53
2022-12-09T15:59:58.592Z,85.97
2022-12-09T16:02:28.622Z,98.28
2022-12-09T16:05:02.118Z,74.93
2022-12-09T16:07:35.490Z,57.88
2022-12-09T16:10:07.390Z,55.72
2022-12-09T16:12:37.166Z,63.70
2022-12-09T16:15:05.520Z,55.70
2022-12-09T16:17:36.423Z,59.20
2022-12-09T16:20:33.106Z,71.78
2022-12-09T16:23:02.723Z,51.00
2022-12-09T16:25:35.792Z,46.05
2022-12-09T16:28:06.209Z,39.88
2022-12-09T16:30:44.937Z,52.75
2022-12-09T16:33:21.552Z,40.58
2022-12-09T16:36:05.357Z,48.20
2022-12-09T16:38:37.575Z,46.22
2022-12-09T16:41:13.792Z,43.20
2022-12-09T16:43:56.895Z,51.40
2022-12-09T16:46:39.677Z,60.08
2022-12-09T16:49:06.970Z,54.88
2022-12-09T16:51:36.307Z,64.20
2022-12-09T16:54:16.542Z,67.88
2022-12-09T16:56:46.778Z,63.95
2022-12-09T16:59:13.534Z,61.33
2022-12-09T17:01:42.201Z,44.95
2022-12-09T17:04:14.133Z,48.80
2022-12-09T17:06:41.096Z,79.57
2022-12-09T17:09:09.855Z,78.13
2022-12-09T17:11:36.909Z,100.97
2022-12-09T17:14:04.195Z,120.57
2022-12-09T17:16:31.757Z,99.55
2022-12-09T17:18:58.811Z,92.13
2022-12-09T17:21:25.744Z,83.97
2022-12-09T17:23:52.820Z,116.50
2022-12-09T17:26:21.576Z,76.85
2022-12-09T17:28:49.522Z,97.28
2022-12-09T17:31:18.751Z,121.22
2022-12-09T17:33:45.878Z,92.50
2022-12-09T17:36:14.475Z,100.05
2022-12-09T17:38:41.625Z,63.10
2022-12-09T17:41:10.905Z,71.55
2022-12-09T17:43:39.479Z,77.57
2022-12-09T17:46:06.979Z,97.93
2022-12-09T17:48:35.009Z,89.00
2022-12-09T17:51:06.674Z,79.03
2022-12-09T17:53:35.690Z,112.82
2022-12-09T17:56:06.114Z,89.78
2022-12-09T17:58:32.937Z,49.70
2022-12-09T18:01:01.138Z,57.67
2022-12-09T18:03:54.264Z,55.10
2022-12-09T18:06:17.680Z,78.07
2022-12-09T18:08:44.728Z,67.50
2022-12-09T18:11:11.964Z,50.88
2022-12-09T18:13:39.153Z,71.63
2022-12-09T18:16:11.127Z,50.38
2022-12-09T18:18:38.090Z,80.88
2022-12-09T18:21:09.326Z,62.70
2022-12-09T18:23:41.302Z,105.93
2022-12-09T18:26:09.693Z,104.65
2022-12-09T18:28:37.091Z,48.15
2022-12-09T18:31:06.952Z,79.80
2022-12-09T18:33:53.923Z,50.30
2022-12-09T18:36:39.715Z,68.07
2022-12-09T19:15:15.173Z,32.60
2022-12-09T19:17:42.843Z,30.55
2022-12-09T19:20:11.048Z,48.83
2022-12-09T19:22:40.943Z,83.05
2022-12-09T19:25:08.903Z,38.33
2022-12-09T19:27:36.264Z,44.00
2022-12-09T19:30:04.472Z,54.33
2022-12-09T19:32:52.423Z,90.53
2022-12-09T19:35:19.847Z,62.97
2022-12-09T19:37:46.810Z,54.63
2022-12-09T19:40:13.719Z,50.78
2022-12-09T19:42:40.729Z,46.08
2022-12-09T19:45:13.654Z,51.00
2022-12-09T19:47:43.904Z,54.35
2022-12-09T19:50:10.947Z,68.53
2022-12-09T19:52:38.099Z,37.88
2022-12-09T19:55:05.681Z,66.40
2022-12-09T19:57:33.198Z,49.53
2022-12-09T20:00:10.298Z,55.38
2022-12-09T20:02:37.879Z,53.70
2022-12-09T20:05:06.846Z,71.60
2022-12-09T20:07:33.835Z,75.88
2022-12-09T20:10:00.604Z,48.17
2022-12-09T20:12:27.418Z,70.20
2022-12-09T20:14:54.398Z,65.78
2022-12-09T20:17:21.473Z,51.85
2022-12-09T20:19:48.630Z,54.88
2022-12-09T20:22:17.062Z,74.82
2022-12-09T20:24:44.213Z,66.55
2022-12-09T20:27:11.019Z,65.38
2022-12-09T20:29:38.550Z,68.25
2022-12-09T20:32:06.115Z,51.70
2022-12-09T20:34:33.040Z,50.78
2022-12-09T20:37:00.332Z,74.45
2022-12-09T20:39:28.768Z,40.97
2022-12-09T20:41:55.667Z,42.88
2022-12-09T20:44:22.472Z,39.83
2022-12-09T20:46:51.403Z,38.13
2022-12-09T20:49:22.014Z,49.85
2022-12-09T20:51:49.210Z,46.60
2022-12-09T20:54:16.421Z,44.53
2022-12-09T20:56:44.607Z,43.65
2022-12-09T20:59:12.200Z,52.50
2022-12-09T21:01:39.217Z,59.58
2022-12-09T21:04:07.208Z,36.75
2022-12-09T21:06:36.702Z,46.38
2022-12-09T21:09:06.810Z,62.35
2022-12-09T21:11:33.945Z,52.42
2022-12-09T21:14:04.809Z,47.80
2022-12-09T21:16:33.422Z,49.60
2022-12-09T21:19:02.189Z,88.10
2022-12-09T21:21:31.630Z,57.95
2022-12-09T21:23:59.832Z,67.10
2022-12-09T21:26:27.488Z,105.47
2022-12-09T21:28:54.604Z,76.38
2022-12-09T21:31:24.859Z,65.53
2022-12-09T21:33:53.632Z,77.97
2022-12-09T21:36:23.582Z,89.03
2022-12-09T21:38:51.428Z,98.05
2022-12-09T21:41:20.680Z,89.10
2022-12-09T21:43:47.767Z,93.68
2022-12-09T21:46:18.778Z,72.95
2022-12-09T21:48:52.044Z,73.60
2022-12-09T21:51:20.004Z,70.97
2022-12-09T21:53:47.623Z,57.80
2022-12-09T21:56:16.652Z,64.68
2022-12-09T21:58:44.637Z,58.97
2022-12-09T22:01:14.602Z,52.80
2022-12-09T22:03:42.515Z,50.83
2022-12-09T22:06:11.655Z,52.70
2022-12-09T22:08:39.962Z,53.30
2022-12-09T22:11:09.363Z,58.40
2022-12-09T22:13:39.492Z,57.05
2022-12-09T22:16:07.661Z,47.47
2022-12-09T22:18:34.909Z,57.70
2022-12-09T22:23:52.972Z,58.40
2022-12-09T22:26:21.031Z,67.22
2022-12-09T22:28:48.317Z,47.65
2022-12-09T22:31:17.454Z,48.50
2022-12-09T22:33:46.682Z,50.03
2022-12-09T22:36:16.185Z,50.50
2022-12-09T22:38:44.016Z,52.35
2022-12-09T22:41:14.602Z,58.33
2022-12-09T22:43:42.354Z,48.58
2022-12-09T22:46:11.766Z,51.40
2022-12-09T22:48:40.225Z,50.63
2022-12-09T22:51:08.967Z,55.80
2022-12-09T22:53:36.132Z,50.67
2022-12-09T22:56:03.689Z,45.40
2022-12-09T22:58:33.970Z,50.17
2022-12-09T23:03:27.829Z,44.78
2022-12-09T23:05:55.650Z,50.55
2022-12-09T23:08:22.817Z,39.35
2022-12-09T23:10:50.346Z,43.47
2022-12-09T23:13:17.111Z,42.92
2022-12-09T23:15:45.374Z,33.60
2022-12-09T23:18:12.272Z,53.63
2022-12-09T23:20:39.146Z,53.78
2022-12-09T23:23:06.098Z,52.35
2022-12-09T23:25:33.307Z,45.15
2022-12-09T23:28:00.454Z,44.45
2022-12-09T23:30:27.263Z,42.67
2022-12-09T23:32:55.592Z,45.70
2022-12-09T23:35:22.720Z,41.00
2022-12-09T23:37:49.977Z,50.83
2022-12-09T23:40:17.321Z,42.78
2022-12-09T23:42:44.089Z,47.58
2022-12-09T23:45:11.502Z,49.83
2022-12-09T23:47:38.481Z,36.03
2022-12-09T23:50:07.725Z,38.63
2022-12-09T23:52:36.254Z,50.95
2022-12-09T23:55:04.686Z,46.25
2022-12-09T23:57:31.709Z,53.67
